PWSweather.com
Personal Weather Stations
Station Observations
ISANTACA4
Capoeiras Weather Station, Florianopolis, SC 88070450

Capoeiras Weather StationFlorianopolis, SC 88070450

Lat: -27.596, Lon: -48.588

Elevation: 133

Station Type: Oregon WMR 928NX

Latest ConditionsUpdated 1:00:01 PM GMT-03:57 Saturday, Nov 22, 2014
Currently Today's Max Today's Min Today's Average
Temperature 83.1°F28.4°C 83.1°F28.4°C 72.1°F22.3°C 74.9°F23.8°C
Dew Point 74.0°F23.3°C 74.2°F23.4°C 69.5°F20.8°C 71.1°F21.7°C
Winds 8.0 mph NE12.9 kmh NE 8.0 mph NE12.9 kmh NE - 4.6 mph 7.4 kmh
Wind Gusts 11.0 mph17.7 kmh 17.0 mph27.4 kmh - -
Humidity 74% 92% 74% 88%
Pressure 29.79 in1008.8 mb 29.91 in1012.9 mb 29.79 in1008.8 mb -
Precipitation - 0.07 in1.8 mm - -
Hour Temp Dew Point Humidity Winds Wind Gusts Pressure Precip Precip Rate Daily Precip Total
01:00 PM 83.1°F28.4°C 74.0°F23.3°C 74% 8.0 mph NE12.9 kmh NE 11.0 mph17.7 kmh 29.79 in1008.8 mb 0.00 in0.0 mm 0.00 in/hr0.0 mm/hr 0.07 in1.8 mm
12:45 PM 83.1°F28.4°C 74.0°F23.3°C 74% 7.0 mph NE11.3 kmh NE 14.0 mph22.5 kmh 29.80 in1009.1 mb 0.00 in0.0 mm 0.00 in/hr0.0 mm/hr 0.07 in1.8 mm
12:30 PM 82.6°F28.1°C 74.2°F23.4°C 76% 6.0 mph ENE9.7 kmh ENE 11.0 mph17.7 kmh 29.80 in1009.1 mb 0.00 in0.0 mm 0.00 in/hr0.0 mm/hr 0.07 in1.8 mm
12:15 PM 81.3°F27.4°C 74.2°F23.4°C 79% 6.0 mph NE9.7 kmh NE 11.0 mph17.7 kmh 29.80 in1009.1 mb 0.00 in0.0 mm 0.00 in/hr0.0 mm/hr 0.07 in1.8 mm
12:00 PM 80.4°F26.9°C 73.7°F23.2°C 80% 6.0 mph NE9.7 kmh NE 12.0 mph19.3 kmh 29.80 in1009.1 mb 0.00 in0.0 mm 0.00 in/hr0.0 mm/hr 0.07 in1.8 mm
11:45 AM 79.9°F26.6°C 73.2°F22.9°C 80% 6.0 mph NE9.7 kmh NE 10.0 mph16.1 kmh 29.80 in1009.1 mb 0.00 in0.0 mm 0.00 in/hr0.0 mm/hr 0.07 in1.8 mm
11:30 AM 79.3°F26.3°C 73.4°F23.0°C 82% 6.0 mph NE9.7 kmh NE 10.0 mph16.1 kmh 29.80 in1009.1 mb 0.00 in0.0 mm 0.00 in/hr0.0 mm/hr 0.07 in1.8 mm
11:15 AM 78.8°F26.0°C 73.2°F22.9°C 83% 8.0 mph NE12.9 kmh NE 12.0 mph19.3 kmh 29.81 in1009.5 mb 0.00 in0.0 mm 0.00 in/hr0.0 mm/hr 0.07 in1.8 mm
11:00 AM 78.4°F25.8°C 72.8°F22.7°C 83% 8.0 mph NE12.9 kmh NE 14.0 mph22.5 kmh 29.81 in1009.5 mb 0.00 in0.0 mm 0.00 in/hr0.0 mm/hr 0.07 in1.8 mm
10:45 AM 77.9°F25.5°C 73.0°F22.8°C 85% 7.0 mph NE11.3 kmh NE 12.0 mph19.3 kmh 29.81 in1009.5 mb 0.00 in0.0 mm 0.00 in/hr0.0 mm/hr 0.07 in1.8 mm
10:30 AM 77.4°F25.2°C 72.5°F22.5°C 85% 7.0 mph NE11.3 kmh NE 16.0 mph25.7 kmh 29.82 in1009.8 mb 0.00 in0.0 mm 0.00 in/hr0.0 mm/hr 0.07 in1.8 mm
10:15 AM 77.0°F25.0°C 72.5°F22.5°C 86% 8.0 mph NE12.9 kmh NE 14.0 mph22.5 kmh 29.82 in1009.8 mb 0.00 in0.0 mm 0.00 in/hr0.0 mm/hr 0.07 in1.8 mm
10:00 AM 77.2°F25.1°C 72.7°F22.6°C 86% 6.0 mph NE9.7 kmh NE 15.0 mph24.1 kmh 29.82 in1009.8 mb 0.00 in0.0 mm 0.00 in/hr0.0 mm/hr 0.07 in1.8 mm
09:45 AM 76.6°F24.8°C 72.5°F22.5°C 87% 8.0 mph NE12.9 kmh NE 14.0 mph22.5 kmh 29.83 in1010.2 mb 0.00 in0.0 mm 0.00 in/hr0.0 mm/hr 0.07 in1.8 mm
09:30 AM 76.3°F24.6°C 72.1°F22.3°C 87% 7.0 mph NE11.3 kmh NE 13.0 mph20.9 kmh 29.83 in1010.2 mb 0.00 in0.0 mm 0.00 in/hr0.0 mm/hr 0.07 in1.8 mm
09:15 AM 75.7°F24.3°C 71.9°F22.2°C 88% 8.0 mph NE12.9 kmh NE 17.0 mph27.4 kmh 29.83 in1010.2 mb 0.00 in0.0 mm 0.00 in/hr0.0 mm/hr 0.07 in1.8 mm
09:00 AM 75.4°F24.1°C 71.9°F22.2°C 89% 6.0 mph NE9.7 kmh NE 12.0 mph19.3 kmh 29.84 in1010.5 mb 0.00 in0.0 mm 0.00 in/hr0.0 mm/hr 0.07 in1.8 mm
08:45 AM 75.2°F24.0°C 71.7°F22.1°C 89% 6.0 mph NNE9.7 kmh NNE 11.0 mph17.7 kmh 29.83 in1010.2 mb 0.00 in0.0 mm 0.00 in/hr0.0 mm/hr 0.07 in1.8 mm
08:30 AM 74.8°F23.8°C 71.7°F22.1°C 90% 6.0 mph NNE9.7 kmh NNE 14.0 mph22.5 kmh 29.84 in1010.5 mb 0.00 in0.0 mm 0.00 in/hr0.0 mm/hr 0.07 in1.8 mm
08:15 AM 74.8°F23.8°C 71.7°F22.1°C 90% 6.0 mph NNE9.7 kmh NNE 16.0 mph25.7 kmh 29.85 in1010.8 mb 0.00 in0.0 mm 0.00 in/hr0.0 mm/hr 0.07 in1.8 mm
08:00 AM 74.1°F23.4°C 71.3°F21.8°C 91% 4.0 mph N6.4 kmh N 12.0 mph19.3 kmh 29.84 in1010.5 mb 0.00 in0.0 mm 0.00 in/hr0.0 mm/hr 0.07 in1.8 mm
07:45 AM 73.6°F23.1°C 70.8°F21.6°C 91% 6.0 mph N9.7 kmh N 12.0 mph19.3 kmh 29.84 in1010.5 mb 0.00 in0.0 mm 0.00 in/hr0.0 mm/hr 0.07 in1.8 mm
07:30 AM 73.2°F22.9°C 70.4°F21.3°C 91% 6.0 mph N9.7 kmh N 10.0 mph16.1 kmh 29.84 in1010.5 mb 0.00 in0.0 mm 0.00 in/hr0.0 mm/hr 0.07 in1.8 mm
07:15 AM 73.0°F22.8°C 70.3°F21.3°C 91% 4.0 mph NNE6.4 kmh NNE 9.0 mph14.5 kmh 29.82 in1009.8 mb 0.00 in0.0 mm 0.00 in/hr0.0 mm/hr 0.07 in1.8 mm
07:00 AM 73.0°F22.8°C 70.3°F21.3°C 91% 3.0 mph NNE4.8 kmh NNE 9.0 mph14.5 kmh 29.82 in1009.8 mb 0.00 in0.0 mm 0.00 in/hr0.0 mm/hr 0.07 in1.8 mm
06:45 AM 72.7°F22.6°C 69.9°F21.1°C 91% 8.0 mph NE12.9 kmh NE 12.0 mph19.3 kmh 29.80 in1009.1 mb 0.00 in0.0 mm 0.00 in/hr0.0 mm/hr 0.07 in1.8 mm
06:30 AM 72.9°F22.7°C 70.4°F21.3°C 92% 6.0 mph NE9.7 kmh NE 12.0 mph19.3 kmh 29.81 in1009.5 mb 0.00 in0.0 mm 0.00 in/hr0.0 mm/hr 0.07 in1.8 mm
06:15 AM 72.7°F22.6°C 70.2°F21.2°C 92% 7.0 mph NE11.3 kmh NE 16.0 mph25.7 kmh 29.81 in1009.5 mb 0.00 in0.0 mm 0.00 in/hr0.0 mm/hr 0.07 in1.8 mm
06:00 AM 72.3°F22.4°C 69.9°F21.1°C 92% 5.0 mph NNE8.0 kmh NNE 11.0 mph17.7 kmh 29.82 in1009.8 mb 0.00 in0.0 mm 0.00 in/hr0.0 mm/hr 0.07 in1.8 mm
05:45 AM 72.1°F22.3°C 69.7°F20.9°C 92% 2.0 mph NNE3.2 kmh NNE 8.0 mph12.9 kmh 29.83 in1010.2 mb 0.02 in0.5 mm 0.00 in/hr0.0 mm/hr 0.07 in1.8 mm
05:30 AM 72.1°F22.3°C 69.7°F20.9°C 92% 4.0 mph NE6.4 kmh NE 9.0 mph14.5 kmh 29.83 in1010.2 mb 0.02 in0.5 mm 0.00 in/hr0.0 mm/hr 0.07 in1.8 mm
05:15 AM 72.1°F22.3°C 69.7°F20.9°C 92% 5.0 mph NE8.0 kmh NE 9.0 mph14.5 kmh 29.83 in1010.2 mb 0.02 in0.5 mm 0.04 in/hr1.0 mm/hr 0.07 in1.8 mm
05:00 AM 72.1°F22.3°C 69.7°F20.9°C 92% 3.0 mph N4.8 kmh N 7.0 mph11.3 kmh 29.83 in1010.2 mb 0.01 in0.3 mm 0.01 in/hr0.3 mm/hr 0.06 in1.5 mm
04:45 AM 72.1°F22.3°C 69.7°F20.9°C 92% 1.0 mph N1.6 kmh N 8.0 mph12.9 kmh 29.84 in1010.5 mb 0.00 in0.0 mm 0.00 in/hr0.0 mm/hr 0.05 in1.3 mm
04:30 AM 72.1°F22.3°C 69.7°F20.9°C 92% 1.0 mph N1.6 kmh N 7.0 mph11.3 kmh 29.84 in1010.5 mb 0.01 in0.3 mm 0.00 in/hr0.0 mm/hr 0.05 in1.3 mm
04:15 AM 72.1°F22.3°C 69.7°F20.9°C 92% 2.0 mph NE3.2 kmh NE 8.0 mph12.9 kmh 29.84 in1010.5 mb 0.01 in0.3 mm 0.00 in/hr0.0 mm/hr 0.05 in1.3 mm
04:00 AM 72.1°F22.3°C 69.7°F20.9°C 92% 3.0 mph NE4.8 kmh NE 6.0 mph9.7 kmh 29.84 in1010.5 mb 0.02 in0.5 mm 0.00 in/hr0.0 mm/hr 0.05 in1.3 mm
03:45 AM 72.1°F22.3°C 69.7°F20.9°C 92% 2.0 mph N3.2 kmh N 4.0 mph6.4 kmh 29.84 in1010.5 mb 0.02 in0.5 mm 0.04 in/hr1.0 mm/hr 0.05 in1.3 mm
03:30 AM 72.1°F22.3°C 69.7°F20.9°C 92% Calm Calm 2.0 mph3.2 kmh 29.84 in1010.5 mb 0.01 in0.3 mm 0.00 in/hr0.0 mm/hr 0.04 in1.0 mm
03:15 AM 72.3°F22.4°C 69.5°F20.8°C 91% 1.0 mph N1.6 kmh N 4.0 mph6.4 kmh 29.84 in1010.5 mb 0.01 in0.3 mm 0.04 in/hr1.0 mm/hr 0.04 in1.0 mm
03:00 AM 72.5°F22.5°C 69.7°F20.9°C 91% 2.0 mph N3.2 kmh N 4.0 mph6.4 kmh 29.84 in1010.5 mb 0.00 in0.0 mm 0.00 in/hr0.0 mm/hr 0.03 in0.8 mm
02:45 AM 72.7°F22.6°C 69.9°F21.1°C 91% 2.0 mph N3.2 kmh N 6.0 mph9.7 kmh 29.85 in1010.8 mb 0.00 in0.0 mm 0.00 in/hr0.0 mm/hr 0.03 in0.8 mm
02:30 AM 72.7°F22.6°C 69.9°F21.1°C 91% 3.0 mph N4.8 kmh N 6.0 mph9.7 kmh 29.85 in1010.8 mb 0.00 in0.0 mm 0.00 in/hr0.0 mm/hr 0.03 in0.8 mm
02:15 AM 72.7°F22.6°C 69.9°F21.1°C 91% 2.0 mph N3.2 kmh N 7.0 mph11.3 kmh 29.86 in1011.2 mb 0.00 in0.0 mm 0.00 in/hr0.0 mm/hr 0.03 in0.8 mm
02:00 AM 72.9°F22.7°C 70.1°F21.2°C 91% 1.0 mph N1.6 kmh N 4.0 mph6.4 kmh 29.87 in1011.5 mb 0.01 in0.3 mm 0.00 in/hr0.0 mm/hr 0.03 in0.8 mm
01:45 AM 72.9°F22.7°C 70.1°F21.2°C 91% 2.0 mph N3.2 kmh N 7.0 mph11.3 kmh 29.87 in1011.5 mb 0.03 in0.8 mm 0.00 in/hr0.0 mm/hr 0.03 in0.8 mm
01:30 AM 73.0°F22.8°C 70.3°F21.3°C 91% 2.0 mph N3.2 kmh N 7.0 mph11.3 kmh 29.88 in1011.9 mb 0.03 in0.8 mm 0.04 in/hr1.0 mm/hr 0.03 in0.8 mm
01:15 AM 73.2°F22.9°C 70.1°F21.2°C 90% 3.0 mph N4.8 kmh N 7.0 mph11.3 kmh 29.89 in1012.2 mb 0.02 in0.5 mm 0.00 in/hr0.0 mm/hr 0.02 in0.5 mm
01:00 AM 73.6°F23.1°C 70.5°F21.4°C 90% 2.0 mph N3.2 kmh N 3.0 mph4.8 kmh 29.90 in1012.5 mb 0.02 in0.5 mm 0.03 in/hr0.8 mm/hr 0.02 in0.5 mm
12:45 AM 73.8°F23.2°C 70.3°F21.3°C 89% 4.0 mph NNE6.4 kmh NNE 9.0 mph14.5 kmh 29.90 in1012.5 mb 0.00 in0.0 mm 0.00 in/hr0.0 mm/hr 0.00 in0.0 mm
12:30 AM 73.9°F23.3°C 70.2°F21.2°C 88% 3.0 mph NE4.8 kmh NE 12.0 mph19.3 kmh 29.91 in1012.9 mb 0.00 in0.0 mm 0.00 in/hr0.0 mm/hr 0.00 in0.0 mm
12:15 AM 73.9°F23.3°C 70.5°F21.4°C 89% 4.0 mph NE6.4 kmh NE 9.0 mph14.5 kmh 29.90 in1012.5 mb 0.00 in0.0 mm 0.00 in/hr0.0 mm/hr 0.00 in0.0 mm
12:00 AM 73.9°F23.3°C 70.2°F21.2°C 88% 6.0 mph NE9.7 kmh NE 12.0 mph19.3 kmh 29.91 in1012.9 mb 0.00 in0.0 mm 0.00 in/hr0.0 mm/hr 0.00 in0.0 mm